sensor_id;sensor_type;location;lat;lon;timestamp;pressure;altitude;pressure_sealevel;temperature;humidity
22580;BME280;11456;47.030;15.396;2023-05-24T00:01:32;97386.28;;;17.55;100.00
22580;BME280;11456;47.030;15.396;2023-05-24T00:03:58;97383.41;;;17.63;100.00
22580;BME280;11456;47.030;15.396;2023-05-24T00:06:26;97385.88;;;17.58;100.00
22580;BME280;11456;47.030;15.396;2023-05-24T00:08:53;97392.47;;;17.36;100.00
22580;BME280;11456;47.030;15.396;2023-05-24T00:11:20;97383.22;;;17.31;100.00
22580;BME280;11456;47.030;15.396;2023-05-24T00:13:48;97375.59;;;17.13;100.00
22580;BME280;11456;47.030;15.396;2023-05-24T00:16:14;97387.13;;;16.87;100.00
22580;BME280;11456;47.030;15.396;2023-05-24T00:18:41;97389.03;;;16.87;100.00
22580;BME280;11456;47.030;15.396;2023-05-24T00:21:12;97382.09;;;16.84;100.00
22580;BME280;11456;47.030;15.396;2023-05-24T00:23:40;97376.13;;;16.95;100.00
22580;BME280;11456;47.030;15.396;2023-05-24T00:26:07;97374.72;;;17.06;100.00
22580;BME280;11456;47.030;15.396;2023-05-24T00:28:35;97374.78;;;17.19;100.00
22580;BME280;11456;47.030;15.396;2023-05-24T00:31:01;97377.28;;;17.14;100.00
22580;BME280;11456;47.030;15.396;2023-05-24T00:33:28;97382.06;;;17.12;100.00
22580;BME280;11456;47.030;15.396;2023-05-24T00:35:55;97373.25;;;17.10;100.00
22580;BME280;11456;47.030;15.396;2023-05-24T00:38:22;97384.00;;;17.18;100.00
22580;BME280;11456;47.030;15.396;2023-05-24T00:40:51;97384.31;;;17.02;100.00
22580;BME280;11456;47.030;15.396;2023-05-24T00:43:19;97389.13;;;17.00;100.00
22580;BME280;11456;47.030;15.396;2023-05-24T00:45:46;97394.84;;;16.83;100.00
22580;BME280;11456;47.030;15.396;2023-05-24T00:48:13;97386.38;;;17.00;100.00
22580;BME280;11456;47.030;15.396;2023-05-24T00:50:39;97388.53;;;17.11;100.00
22580;BME280;11456;47.030;15.396;2023-05-24T00:53:06;97390.69;;;17.15;100.00
22580;BME280;11456;47.030;15.396;2023-05-24T00:55:34;97388.63;;;17.24;100.00
22580;BME280;11456;47.030;15.396;2023-05-24T00:58:02;97381.50;;;17.23;100.00
22580;BME280;11456;47.030;15.396;2023-05-24T01:00:28;97380.63;;;17.16;100.00
22580;BME280;11456;47.030;15.396;2023-05-24T01:02:55;97391.91;;;17.13;100.00
22580;BME280;11456;47.030;15.396;2023-05-24T01:05:22;97392.72;;;17.07;100.00
22580;BME280;11456;47.030;15.396;2023-05-24T01:08:34;97387.28;;;17.07;100.00
22580;BME280;11456;47.030;15.396;2023-05-24T01:10:49;97391.13;;;17.19;100.00
22580;BME280;11456;47.030;15.396;2023-05-24T01:13:34;97396.16;;;17.22;100.00
22580;BME280;11456;47.030;15.396;2023-05-24T01:16:21;97390.78;;;17.35;100.00
22580;BME280;11456;47.030;15.396;2023-05-24T01:18:51;97397.81;;;17.23;100.00
22580;BME280;11456;47.030;15.396;2023-05-24T01:29:37;97412.38;;;17.02;100.00
22580;BME280;11456;47.030;15.396;2023-05-24T01:32:04;97414.94;;;16.82;100.00
22580;BME280;11456;47.030;15.396;2023-05-24T01:34:31;97421.97;;;16.70;100.00
22580;BME280;11456;47.030;15.396;2023-05-24T01:36:57;97423.06;;;16.76;100.00
22580;BME280;11456;47.030;15.396;2023-05-24T01:39:24;97418.50;;;16.83;100.00
22580;BME280;11456;47.030;15.396;2023-05-24T01:42:04;97423.47;;;16.79;100.00
22580;BME280;11456;47.030;15.396;2023-05-24T01:47:01;97414.94;;;16.82;100.00
22580;BME280;11456;47.030;15.396;2023-05-24T01:49:30;97423.06;;;16.76;100.00
22580;BME280;11456;47.030;15.396;2023-05-24T01:52:01;97424.94;;;16.75;100.00
22580;BME280;11456;47.030;15.396;2023-05-24T01:54:30;97415.09;;;17.02;100.00
22580;BME280;11456;47.030;15.396;2023-05-24T01:56:58;97414.06;;;17.10;100.00
22580;BME280;11456;47.030;15.396;2023-05-24T01:59:28;97418.66;;;17.09;100.00
22580;BME280;11456;47.030;15.396;2023-05-24T02:01:55;97415.53;;;17.06;100.00
22580;BME280;11456;47.030;15.396;2023-05-24T02:04:22;97419.84;;;16.94;100.00
22580;BME280;11456;47.030;15.396;2023-05-24T02:06:49;97414.41;;;16.94;100.00
22580;BME280;11456;47.030;15.396;2023-05-24T02:09:16;97420.81;;;17.14;100.00
22580;BME280;11456;47.030;15.396;2023-05-24T02:11:43;97411.53;;;17.02;100.00
22580;BME280;11456;47.030;15.396;2023-05-24T02:14:09;97425.50;;;16.99;100.00
22580;BME280;11456;47.030;15.396;2023-05-24T02:16:36;97429.03;;;16.93;100.00
22580;BME280;11456;47.030;15.396;2023-05-24T02:19:08;97431.88;;;16.84;100.00
22580;BME280;11456;47.030;15.396;2023-05-24T02:21:34;97432.78;;;16.92;100.00
22580;BME280;11456;47.030;15.396;2023-05-24T02:24:02;97430.00;;;17.13;100.00
22580;BME280;11456;47.030;15.396;2023-05-24T02:26:28;97422.31;;;17.23;100.00
22580;BME280;11456;47.030;15.396;2023-05-24T02:28:55;97421.06;;;17.19;100.00
22580;BME280;11456;47.030;15.396;2023-05-24T02:31:22;97425.78;;;17.38;100.00
22580;BME280;11456;47.030;15.396;2023-05-24T02:33:49;97420.41;;;17.17;100.00
22580;BME280;11456;47.030;15.396;2023-05-24T02:36:15;97438.13;;;16.78;100.00
22580;BME280;11456;47.030;15.396;2023-05-24T02:38:42;97434.78;;;16.76;100.00
22580;BME280;11456;47.030;15.396;2023-05-24T02:41:09;97433.38;;;16.87;100.00
22580;BME280;11456;47.030;15.396;2023-05-24T02:43:37;97427.88;;;16.80;100.00
22580;BME280;11456;47.030;15.396;2023-05-24T02:46:03;97421.31;;;16.68;100.00
22580;BME280;11456;47.030;15.396;2023-05-24T02:48:30;97423.78;;;16.63;100.00
22580;BME280;11456;47.030;15.396;2023-05-24T02:50:57;97432.91;;;16.77;100.00
22580;BME280;11456;47.030;15.396;2023-05-24T02:53:28;97433.47;;;16.72;100.00
22580;BME280;11456;47.030;15.396;2023-05-24T02:55:56;97436.00;;;16.74;100.00
22580;BME280;11456;47.030;15.396;2023-05-24T02:58:22;97443.34;;;16.59;100.00
22580;BME280;11456;47.030;15.396;2023-05-24T03:00:49;97434.38;;;16.79;100.00
22580;BME280;11456;47.030;15.396;2023-05-24T03:03:18;97444.88;;;16.82;100.00
22580;BME280;11456;47.030;15.396;2023-05-24T03:05:45;97433.81;;;16.91;100.00
22580;BME280;11456;47.030;15.396;2023-05-24T03:08:12;97441.34;;;16.89;100.00
22580;BME280;11456;47.030;15.396;2023-05-24T03:10:39;97442.34;;;16.81;100.00
22580;BME280;11456;47.030;15.396;2023-05-24T03:13:06;97436.88;;;16.81;100.00
22580;BME280;11456;47.030;15.396;2023-05-24T03:15:35;97438.22;;;16.92;100.00
22580;BME280;11456;47.030;15.396;2023-05-24T03:18:02;97442.75;;;16.84;100.00
22580;BME280;11456;47.030;15.396;2023-05-24T03:20:30;97439.47;;;16.89;100.00
22580;BME280;11456;47.030;15.396;2023-05-24T03:22:57;97442.38;;;16.88;100.00
22580;BME280;11456;47.030;15.396;2023-05-24T03:25:23;97452.72;;;16.99;100.00
22580;BME280;11456;47.030;15.396;2023-05-24T03:27:52;97455.19;;;16.94;100.00
22580;BME280;11456;47.030;15.396;2023-05-24T03:30:20;97453.13;;;16.96;100.00
22580;BME280;11456;47.030;15.396;2023-05-24T03:32:53;97455.34;;;16.86;100.00
22580;BME280;11456;47.030;15.396;2023-05-24T03:35:19;97452.13;;;16.75;100.00
22580;BME280;11456;47.030;15.396;2023-05-24T03:37:47;97455.84;;;16.96;100.00
22580;BME280;11456;47.030;15.396;2023-05-24T03:40:14;97455.44;;;16.99;100.00
22580;BME280;11456;47.030;15.396;2023-05-24T03:42:55;97449.22;;;17.05;100.00
22580;BME280;11456;47.030;15.396;2023-05-24T03:45:42;97452.16;;;17.10;100.00
22580;BME280;11456;47.030;15.396;2023-05-24T03:48:08;97444.69;;;17.18;100.00
22580;BME280;11456;47.030;15.396;2023-05-24T03:50:35;97449.31;;;17.18;100.00
22580;BME280;11456;47.030;15.396;2023-05-24T03:53:01;97459.84;;;17.00;100.00
22580;BME280;11456;47.030;15.396;2023-05-24T03:55:28;97464.50;;;17.06;100.00
22580;BME280;11456;47.030;15.396;2023-05-24T03:57:55;97455.81;;;16.89;100.00
22580;BME280;11456;47.030;15.396;2023-05-24T04:00:22;97465.19;;;16.87;100.00
22580;BME280;11456;47.030;15.396;2023-05-24T04:02:48;97468.03;;;16.78;100.00
22580;BME280;11456;47.030;15.396;2023-05-24T04:05:16;97463.25;;;16.80;100.00
22580;BME280;11456;47.030;15.396;2023-05-24T04:07:42;97465.84;;;16.89;100.00
22580;BME280;11456;47.030;15.396;2023-05-24T04:10:11;97467.59;;;17.03;100.00
22580;BME280;11456;47.030;15.396;2023-05-24T04:12:37;97476.41;;;17.05;100.00
22580;BME280;11456;47.030;15.396;2023-05-24T04:15:06;97479.91;;;16.99;100.00
22580;BME280;11456;47.030;15.396;2023-05-24T04:17:33;97477.66;;;17.02;100.00
22580;BME280;11456;47.030;15.396;2023-05-24T04:20:00;97481.84;;;17.05;100.00
22580;BME280;11456;47.030;15.396;2023-05-24T04:22:28;97486.03;;;17.01;100.00
22580;BME280;11456;47.030;15.396;2023-05-24T04:24:56;97485.22;;;17.07;100.00
22580;BME280;11456;47.030;15.396;2023-05-24T04:27:22;97485.56;;;16.97;100.00
22580;BME280;11456;47.030;15.396;2023-05-24T04:29:51;97488.09;;;16.99;100.00
22580;BME280;11456;47.030;15.396;2023-05-24T04:32:18;97491.47;;;17.01;100.00
22580;BME280;11456;47.030;15.396;2023-05-24T04:34:45;97486.66;;;17.03;100.00
22580;BME280;11456;47.030;15.396;2023-05-24T04:37:11;97490.66;;;17.07;100.00
22580;BME280;11456;47.030;15.396;2023-05-24T04:39:44;97493.09;;;17.23;100.00
22580;BME280;11456;47.030;15.396;2023-05-24T04:42:11;97489.09;;;17.19;100.00
22580;BME280;11456;47.030;15.396;2023-05-24T04:44:41;97496.59;;;17.17;100.00
22580;BME280;11456;47.030;15.396;2023-05-24T04:47:08;97489.09;;;17.19;100.00
22580;BME280;11456;47.030;15.396;2023-05-24T04:49:35;97491.25;;;17.30;100.00
22580;BME280;11456;47.030;15.396;2023-05-24T04:52:02;97490.69;;;17.69;100.00
22580;BME280;11456;47.030;15.396;2023-05-24T04:54:29;97501.69;;;17.54;100.00
22580;BME280;11456;47.030;15.396;2023-05-24T04:56:56;97505.38;;;17.40;100.00
22580;BME280;11456;47.030;15.396;2023-05-24T04:59:23;97505.47;;;17.53;100.00
22580;BME280;11456;47.030;15.396;2023-05-24T05:01:49;97502.75;;;17.53;100.00
22580;BME280;11456;47.030;15.396;2023-05-24T05:04:16;97512.97;;;17.51;100.00
22580;BME280;11456;47.030;15.396;2023-05-24T05:06:42;97500.72;;;17.62;100.00
22580;BME280;11456;47.030;15.396;2023-05-24T05:09:10;97507.38;;;17.59;100.00
22580;BME280;11456;47.030;15.396;2023-05-24T05:11:40;97512.44;;;17.62;100.00
22580;BME280;11456;47.030;15.396;2023-05-24T05:14:06;97493.63;;;17.68;100.00
22580;BME280;11456;47.030;15.396;2023-05-24T05:16:35;97504.84;;;17.58;100.00
22580;BME280;11456;47.030;15.396;2023-05-24T05:19:02;97506.00;;;17.42;100.00
22580;BME280;11456;47.030;15.396;2023-05-24T05:21:31;97511.44;;;17.42;100.00
22580;BME280;11456;47.030;15.396;2023-05-24T05:24:01;97507.38;;;17.59;100.00
22580;BME280;11456;47.030;15.396;2023-05-24T05:26:28;97514.22;;;17.49;100.00
22580;BME280;11456;47.030;15.396;2023-05-24T05:28:55;97507.53;;;17.51;100.00
22580;BME280;11456;47.030;15.396;2023-05-24T05:31:22;97507.00;;;17.62;100.00
22580;BME280;11456;47.030;15.396;2023-05-24T05:33:49;97512.44;;;17.62;100.00
22580;BME280;11456;47.030;15.396;2023-05-24T05:36:15;97514.13;;;17.63;100.00
22580;BME280;11456;47.030;15.396;2023-05-24T05:38:42;97512.44;;;17.62;100.00
22580;BME280;11456;47.030;15.396;2023-05-24T05:41:09;97513.16;;;17.71;100.00
22580;BME280;11456;47.030;15.396;2023-05-24T05:43:37;97509.56;;;17.71;100.00
22580;BME280;11456;47.030;15.396;2023-05-24T05:46:03;97509.56;;;17.71;100.00
22580;BME280;11456;47.030;15.396;2023-05-24T05:48:30;97523.84;;;17.73;100.00
22580;BME280;11456;47.030;15.396;2023-05-24T05:50:57;97521.19;;;17.58;100.00
22580;BME280;11456;47.030;15.396;2023-05-24T05:53:23;97522.50;;;17.62;100.00
22580;BME280;11456;47.030;15.396;2023-05-24T05:55:50;97529.63;;;17.63;100.00
22580;BME280;11456;47.030;15.396;2023-05-24T05:58:16;97529.56;;;17.56;100.00
22580;BME280;11456;47.030;15.396;2023-05-24T06:00:43;97522.97;;;17.66;100.00
22580;BME280;11456;47.030;15.396;2023-05-24T06:03:10;97524.66;;;17.67;100.00
22580;BME280;11456;47.030;15.396;2023-05-24T06:05:36;97523.03;;;17.79;100.00
22580;BME280;11456;47.030;15.396;2023-05-24T06:08:03;97524.69;;;17.80;100.00
22580;BME280;11456;47.030;15.396;2023-05-24T06:10:30;97535.53;;;17.67;100.00
22580;BME280;11456;47.030;15.396;2023-05-24T06:12:56;97540.91;;;17.60;100.00
22580;BME280;11456;47.030;15.396;2023-05-24T06:15:23;97533.44;;;17.69;100.00
22580;BME280;11456;47.030;15.396;2023-05-24T06:17:49;97546.50;;;17.80;100.00
22580;BME280;11456;47.030;15.396;2023-05-24T06:20:17;97540.28;;;17.92;100.00
22580;BME280;11456;47.030;15.396;2023-05-24T06:22:44;97544.84;;;17.79;100.00
22580;BME280;11456;47.030;15.396;2023-05-24T06:25:11;97546.50;;;17.80;100.00
22580;BME280;11456;47.030;15.396;2023-05-24T06:27:44;97545.13;;;17.97;100.00
22580;BME280;11456;47.030;15.396;2023-05-24T06:30:11;97546.47;;;18.14;100.00
22580;BME280;11456;47.030;15.396;2023-05-24T06:32:39;97549.47;;;18.26;100.00
22580;BME280;11456;47.030;15.396;2023-05-24T06:35:05;97544.50;;;17.95;100.00
22580;BME280;11456;47.030;15.396;2023-05-24T06:37:33;97556.03;;;17.62;100.00
22580;BME280;11456;47.030;15.396;2023-05-24T06:40:00;97554.03;;;17.78;100.00
22580;BME280;11456;47.030;15.396;2023-05-24T06:42:26;97555.81;;;17.92;100.00
22580;BME280;11456;47.030;15.396;2023-05-24T06:44:53;97557.75;;;18.05;100.00
22580;BME280;11456;47.030;15.396;2023-05-24T06:47:20;97559.22;;;18.07;100.00
22580;BME280;11456;47.030;15.396;2023-05-24T06:49:47;97560.41;;;17.91;100.00
22580;BME280;11456;47.030;15.396;2023-05-24T06:52:15;97556.72;;;18.12;100.00
22580;BME280;11456;47.030;15.396;2023-05-24T06:54:42;97562.06;;;17.86;100.00
22580;BME280;11456;47.030;15.396;2023-05-24T06:57:08;97566.72;;;17.92;100.00
22580;BME280;11456;47.030;15.396;2023-05-24T06:59:35;97563.34;;;17.90;100.00
22580;BME280;11456;47.030;15.396;2023-05-24T07:02:01;97566.13;;;18.03;100.00
22580;BME280;11456;47.030;15.396;2023-05-24T07:04:29;97565.56;;;18.14;100.00
22580;BME280;11456;47.030;15.396;2023-05-24T07:06:56;97565.38;;;18.22;100.00
22580;BME280;11456;47.030;15.396;2023-05-24T07:09:23;97571.16;;;18.06;100.00
22580;BME280;11456;47.030;15.396;2023-05-24T07:11:50;97579.91;;;17.95;100.00
22580;BME280;11456;47.030;15.396;2023-05-24T07:14:17;97574.63;;;17.87;100.00
22580;BME280;11456;47.030;15.396;2023-05-24T07:16:43;97574.16;;;17.77;100.00
22580;BME280;11456;47.030;15.396;2023-05-24T07:19:10;97582.97;;;17.57;100.00
22580;BME280;11456;47.030;15.396;2023-05-24T07:21:38;97578.09;;;17.46;100.00
22580;BME280;11456;47.030;15.396;2023-05-24T07:24:05;97583.97;;;17.50;100.00
22580;BME280;11456;47.030;15.396;2023-05-24T07:26:32;97585.97;;;17.41;100.00
22580;BME280;11456;47.030;15.396;2023-05-24T07:28:58;97597.72;;;17.42;100.00
22580;BME280;11456;47.030;15.396;2023-05-24T07:31:25;97590.31;;;17.08;100.00
22580;BME280;11456;47.030;15.396;2023-05-24T07:33:52;97588.81;;;17.27;100.00
22580;BME280;11456;47.030;15.396;2023-05-24T07:36:19;97585.13;;;16.92;100.00
22580;BME280;11456;47.030;15.396;2023-05-24T07:38:46;97586.16;;;16.69;100.00
22580;BME280;11456;47.030;15.396;2023-05-24T07:41:13;97586.06;;;16.84;100.00
22580;BME280;11456;47.030;15.396;2023-05-24T07:43:39;97593.59;;;16.82;100.00
22580;BME280;11456;47.030;15.396;2023-05-24T07:46:06;97590.56;;;16.92;100.00
22580;BME280;11456;47.030;15.396;2023-05-24T07:48:33;97589.78;;;16.98;100.00
22580;BME280;11456;47.030;15.396;2023-05-24T07:51:00;97596.00;;;16.92;100.00
22580;BME280;11456;47.030;15.396;2023-05-24T07:53:26;97587.28;;;16.96;100.00
22580;BME280;11456;47.030;15.396;2023-05-24T07:55:53;97598.06;;;17.11;100.00
22580;BME280;11456;47.030;15.396;2023-05-24T07:58:20;97598.66;;;17.06;100.00
22580;BME280;11456;47.030;15.396;2023-05-24T08:00:46;97596.66;;;17.15;100.00
22580;BME280;11456;47.030;15.396;2023-05-24T08:03:13;97601.69;;;17.18;100.00
22580;BME280;11456;47.030;15.396;2023-05-24T08:05:41;97598.72;;;17.13;100.00
22580;BME280;11456;47.030;15.396;2023-05-24T08:08:07;97598.97;;;17.39;100.00
22580;BME280;11456;47.030;15.396;2023-05-24T08:10:34;97601.19;;;17.08;100.00
22580;BME280;11456;47.030;15.396;2023-05-24T08:13:02;97593.91;;;17.36;100.00
22580;BME280;11456;47.030;15.396;2023-05-24T08:15:28;97592.75;;;17.03;100.00
22580;BME280;11456;47.030;15.396;2023-05-24T08:17:55;97596.69;;;17.43;100.00
22580;BME280;11456;47.030;15.396;2023-05-24T08:20:22;97600.47;;;17.20;100.00
22580;BME280;11456;47.030;15.396;2023-05-24T08:22:48;97607.09;;;17.11;100.00
22580;BME280;11456;47.030;15.396;2023-05-24T08:25:15;97612.78;;;17.16;100.00
22580;BME280;11456;47.030;15.396;2023-05-24T08:27:41;97614.28;;;17.19;100.00
22580;BME280;11456;47.030;15.396;2023-05-24T08:30:08;97614.66;;;16.95;100.00
22580;BME280;11456;47.030;15.396;2023-05-24T08:32:36;97613.38;;;17.12;100.00
22580;BME280;11456;47.030;15.396;2023-05-24T08:35:03;97613.72;;;17.02;100.00
22580;BME280;11456;47.030;15.396;2023-05-24T08:37:45;97617.25;;;17.03;100.00
22580;BME280;11456;47.030;15.396;2023-05-24T08:40:13;97623.06;;;16.78;100.00
22580;BME280;11456;47.030;15.396;2023-05-24T08:42:41;97618.38;;;16.72;100.00
22580;BME280;11456;47.030;15.396;2023-05-24T08:45:10;97625.50;;;16.73;100.00
22580;BME280;11456;47.030;15.396;2023-05-24T08:47:37;97631.78;;;16.59;100.00
22580;BME280;11456;47.030;15.396;2023-05-24T08:50:04;97634.47;;;16.89;100.00
22580;BME280;11456;47.030;15.396;2023-05-24T08:52:32;97630.59;;;16.98;100.00
22580;BME280;11456;47.030;15.396;2023-05-24T08:54:59;97634.56;;;16.95;100.00
22580;BME280;11456;47.030;15.396;2023-05-24T08:57:26;97640.56;;;16.91;100.00
22580;BME280;11456;47.030;15.396;2023-05-24T08:59:53;97642.91;;;16.94;100.00
22580;BME280;11456;47.030;15.396;2023-05-24T09:02:22;97643.03;;;17.07;100.00
22580;BME280;11456;47.030;15.396;2023-05-24T09:04:50;97644.88;;;17.21;100.00
22580;BME280;11456;47.030;15.396;2023-05-24T09:07:18;97647.78;;;16.83;100.00
22580;BME280;11456;47.030;15.396;2023-05-24T09:09:46;97648.88;;;17.25;100.00
22580;BME280;11456;47.030;15.396;2023-05-24T09:12:14;97645.66;;;17.15;100.00
22580;BME280;11456;47.030;15.396;2023-05-24T09:14:54;97652.81;;;17.22;100.00
22580;BME280;11456;47.030;15.396;2023-05-24T09:17:20;97646.94;;;17.40;100.00
22580;BME280;11456;47.030;15.396;2023-05-24T09:19:48;97652.22;;;17.48;100.00
22580;BME280;11456;47.030;15.396;2023-05-24T09:22:15;97651.31;;;17.41;100.00
22580;BME280;11456;47.030;15.396;2023-05-24T09:24:48;97650.69;;;17.39;100.00
22580;BME280;11456;47.030;15.396;2023-05-24T09:27:15;97648.75;;;17.12;100.00
22580;BME280;11456;47.030;15.396;2023-05-24T09:29:49;97655.56;;;17.01;100.00
22580;BME280;11456;47.030;15.396;2023-05-24T09:32:17;97654.84;;;17.14;100.00
22580;BME280;11456;47.030;15.396;2023-05-24T09:34:44;97653.59;;;17.16;100.00
22580;BME280;11456;47.030;15.396;2023-05-24T09:37:17;97653.03;;;17.21;100.00
22580;BME280;11456;47.030;15.396;2023-05-24T09:39:44;97661.97;;;17.15;100.00
22580;BME280;11456;47.030;15.396;2023-05-24T09:42:16;97660.69;;;17.32;100.00
22580;BME280;11456;47.030;15.396;2023-05-24T09:44:46;97660.66;;;17.75;100.00
22580;BME280;11456;47.030;15.396;2023-05-24T09:47:13;97660.63;;;17.96;100.00
22580;BME280;11456;47.030;15.396;2023-05-24T09:49:40;97659.81;;;18.02;100.00
22580;BME280;11456;47.030;15.396;2023-05-24T09:52:06;97663.53;;;17.94;100.00
22580;BME280;11456;47.030;15.396;2023-05-24T09:54:33;97659.72;;;17.89;100.00
22580;BME280;11456;47.030;15.396;2023-05-24T09:57:01;97667.09;;;17.67;100.00
22580;BME280;11456;47.030;15.396;2023-05-24T09:59:33;97666.53;;;17.72;100.00
22580;BME280;11456;47.030;15.396;2023-05-24T10:02:06;97663.38;;;17.75;100.00
22580;BME280;11456;47.030;15.396;2023-05-24T10:04:35;97665.00;;;17.90;100.00
22580;BME280;11456;47.030;15.396;2023-05-24T10:07:02;97664.38;;;17.95;100.00
22580;BME280;11456;47.030;15.396;2023-05-24T10:09:29;97666.81;;;18.11;100.00
22580;BME280;11456;47.030;15.396;2023-05-24T10:12:02;97661.59;;;18.16;100.00
22580;BME280;11456;47.030;15.396;2023-05-24T10:14:34;97652.53;;;18.09;100.00
22580;BME280;11456;47.030;15.396;2023-05-24T10:17:04;97666.72;;;17.98;100.00
22580;BME280;11456;47.030;15.396;2023-05-24T10:19:31;97666.06;;;17.96;100.00
22580;BME280;11456;47.030;15.396;2023-05-24T10:21:58;97667.59;;;17.77;100.00
22580;BME280;11456;47.030;15.396;2023-05-24T10:24:25;97667.66;;;17.84;100.00
22580;BME280;11456;47.030;15.396;2023-05-24T10:26:54;97671.72;;;18.22;100.00
22580;BME280;11456;47.030;15.396;2023-05-24T10:29:26;97665.22;;;17.95;100.00
22580;BME280;11456;47.030;15.396;2023-05-24T10:31:58;97672.41;;;18.03;100.00
22580;BME280;11456;47.030;15.396;2023-05-24T10:34:25;97656.53;;;18.13;100.00
22580;BME280;11456;47.030;15.396;2023-05-24T10:36:52;97662.69;;;17.94;100.00
22580;BME280;11456;47.030;15.396;2023-05-24T10:39:20;97664.09;;;18.11;100.00
22580;BME280;11456;47.030;15.396;2023-05-24T10:41:47;97670.66;;;18.58;100.00
22580;BME280;11456;47.030;15.396;2023-05-24T10:44:16;97669.38;;;18.54;100.00
22580;BME280;11456;47.030;15.396;2023-05-24T10:49:29;97671.94;;;17.99;100.00
22580;BME280;11456;47.030;15.396;2023-05-24T10:52:00;97668.16;;;17.94;100.00
22580;BME280;11456;47.030;15.396;2023-05-24T10:54:27;97659.66;;;18.44;100.00
22580;BME280;11456;47.030;15.396;2023-05-24T10:56:54;97657.38;;;18.96;99.47
22580;BME280;11456;47.030;15.396;2023-05-24T10:59:29;97658.19;;;18.83;97.17
22580;BME280;11456;47.030;15.396;2023-05-24T11:01:59;97663.97;;;18.60;97.94
22580;BME280;11456;47.030;15.396;2023-05-24T11:04:29;97667.31;;;19.10;94.66
22580;BME280;11456;47.030;15.396;2023-05-24T11:07:00;97666.34;;;18.35;97.89
22580;BME280;11456;47.030;15.396;2023-05-24T11:09:26;97665.22;;;18.58;96.39
22580;BME280;11456;47.030;15.396;2023-05-24T11:11:54;97669.22;;;18.27;99.45
22580;BME280;11456;47.030;15.396;2023-05-24T11:14:22;97669.94;;;18.08;99.49
22580;BME280;11456;47.030;15.396;2023-05-24T11:16:49;97661.34;;;18.46;98.07
22580;BME280;11456;47.030;15.396;2023-05-24T11:19:21;97659.84;;;18.36;99.09
22580;BME280;11456;47.030;15.396;2023-05-24T11:21:49;97663.59;;;18.70;99.69
22580;BME280;11456;47.030;15.396;2023-05-24T11:24:16;97660.13;;;18.96;100.00
22580;BME280;11456;47.030;15.396;2023-05-24T11:26:44;97661.59;;;18.92;97.61
22580;BME280;11456;47.030;15.396;2023-05-24T11:29:14;97655.50;;;18.96;97.81
22580;BME280;11456;47.030;15.396;2023-05-24T11:31:50;97661.56;;;18.85;93.70
22580;BME280;11456;47.030;15.396;2023-05-24T11:34:18;97657.56;;;18.81;94.07
22580;BME280;11456;47.030;15.396;2023-05-24T11:36:45;97660.84;;;18.70;96.15
22580;BME280;11456;47.030;15.396;2023-05-24T11:39:12;97651.78;;;18.63;95.61
22580;BME280;11456;47.030;15.396;2023-05-24T11:41:39;97655.50;;;18.49;97.66
22580;BME280;11456;47.030;15.396;2023-05-24T11:44:06;97648.03;;;18.64;95.66
22580;BME280;11456;47.030;15.396;2023-05-24T11:46:33;97654.25;;;18.92;93.08
22580;BME280;11456;47.030;15.396;2023-05-24T11:49:00;97649.13;;;18.76;94.04
22580;BME280;11456;47.030;15.396;2023-05-24T11:51:27;97653.47;;;18.64;94.74
22580;BME280;11456;47.030;15.396;2023-05-24T11:53:55;97651.81;;;18.69;94.40
22580;BME280;11456;47.030;15.396;2023-05-24T11:56:21;97648.94;;;18.77;95.56
22580;BME280;11456;47.030;15.396;2023-05-24T11:58:48;97652.50;;;18.78;98.94
22580;BME280;11456;47.030;15.396;2023-05-24T12:01:25;97640.94;;;18.76;98.45
22580;BME280;11456;47.030;15.396;2023-05-24T12:03:53;97646.75;;;18.60;97.73
22580;BME280;11456;47.030;15.396;2023-05-24T12:06:20;97648.69;;;18.66;98.91
22580;BME280;11456;47.030;15.396;2023-05-24T12:08:47;97649.72;;;18.65;95.17
22580;BME280;11456;47.030;15.396;2023-05-24T12:11:14;97655.69;;;18.81;92.40
22580;BME280;11456;47.030;15.396;2023-05-24T12:13:41;97652.59;;;18.57;96.07
22580;BME280;11456;47.030;15.396;2023-05-24T12:16:09;97650.31;;;18.26;96.15
22580;BME280;11456;47.030;15.396;2023-05-24T12:18:36;97651.16;;;18.26;98.92
22580;BME280;11456;47.030;15.396;2023-05-24T12:21:11;97655.50;;;18.49;100.00
22580;BME280;11456;47.030;15.396;2023-05-24T12:23:38;97645.91;;;18.59;98.48
22580;BME280;11456;47.030;15.396;2023-05-24T12:26:04;97651.81;;;18.69;99.23
22580;BME280;11456;47.030;15.396;2023-05-24T12:28:31;97646.53;;;19.15;96.22
22580;BME280;11456;47.030;15.396;2023-05-24T12:31:02;97652.34;;;18.86;97.09
22580;BME280;11456;47.030;15.396;2023-05-24T12:33:29;97655.66;;;18.75;100.00
22580;BME280;11456;47.030;15.396;2023-05-24T12:35:56;97651.03;;;18.82;100.00
22580;BME280;11456;47.030;15.396;2023-05-24T12:38:24;97655.72;;;19.01;99.05
22580;BME280;11456;47.030;15.396;2023-05-24T12:40:51;97656.88;;;18.66;100.00
22580;BME280;11456;47.030;15.396;2023-05-24T12:43:37;97662.22;;;18.53;100.00
22580;BME280;11456;47.030;15.396;2023-05-24T12:46:04;97653.53;;;18.77;100.00
22580;BME280;11456;47.030;15.396;2023-05-24T12:48:30;97649.38;;;18.81;100.00
22580;BME280;11456;47.030;15.396;2023-05-24T12:50:57;97652.19;;;19.01;100.00
22580;BME280;11456;47.030;15.396;2023-05-24T12:53:24;97644.81;;;19.01;100.00
22580;BME280;11456;47.030;15.396;2023-05-24T12:55:51;97641.50;;;19.12;100.00
22580;BME280;11456;47.030;15.396;2023-05-24T12:58:21;97637.34;;;19.43;98.30